Time;durP1;ratioP1;P1;durP2;ratioP2;P2;SDS_P1;SDS_P2;PMS_P1;PMS_P2;Temp;Humidity;BMP_temperature;BMP_pressure;BME280_temperature;BME280_humidity;BME280_pressure;Samples;Min_cycle;Max_cycle;Signal;HPM_P1;HPM_P2
2022/05/12 00:02:04;;;;;;;9.97;9.30;;;22.90;99.90;;;;;;4980728;28;20804;-58
2022/05/12 00:04:31;;;;;;;9.20;8.50;;;22.80;99.90;;;;;;4992466;28;20478;-56
2022/05/12 00:06:58;;;;;;;9.57;8.93;;;22.90;99.90;;;;;;4992396;28;20179;-58
2022/05/12 00:09:24;;;;;;;10.20;9.60;;;22.90;99.90;;;;;;4986107;28;20902;-58
2022/05/12 00:11:50;;;;;;;9.23;8.63;;;22.90;99.90;;;;;;4981904;28;21013;-59
2022/05/12 00:14:16;;;;;;;9.63;8.83;;;23.00;99.90;;;;;;4991710;28;20445;-59
2022/05/12 00:16:42;;;;;;;9.00;8.40;;;23.10;99.90;;;;;;4984505;28;20208;-58
2022/05/12 00:19:07;;;;;;;10.23;9.23;;;23.10;99.90;;;;;;4988784;28;20438;-59
2022/05/12 00:21:34;;;;;;;9.53;8.87;;;23.10;99.90;;;;;;4992930;28;20679;-56
2022/05/12 00:24:00;;;;;;;9.10;8.57;;;23.20;99.90;;;;;;4993736;28;20265;-55
2022/05/12 00:26:27;;;;;;;9.27;8.67;;;23.00;99.90;;;;;;4994186;28;20437;-58
2022/05/12 00:28:53;;;;;;;8.90;8.37;;;23.10;99.90;;;;;;4992645;28;20447;-58
2022/05/12 00:31:20;;;;;;;8.83;8.13;;;23.20;99.90;;;;;;4982663;28;20484;-58
2022/05/12 00:33:45;;;;;;;8.93;8.43;;;23.10;99.90;;;;;;4989648;28;20446;-56
2022/05/12 00:36:11;;;;;;;8.27;7.77;;;23.20;99.90;;;;;;4994555;28;20429;-59
2022/05/12 00:38:37;;;;;;;9.47;8.87;;;23.10;99.90;;;;;;4993359;28;20235;-58
2022/05/12 00:41:02;;;;;;;9.20;8.57;;;23.10;99.90;;;;;;4983952;28;20274;-58
2022/05/12 00:43:50;;;;;;;9.37;8.77;;;23.00;99.90;;;;;;4988426;28;21141;-58
2022/05/12 00:46:25;;;;;;;9.53;8.93;;;23.00;99.90;;;;;;4992523;28;20266;-57
2022/05/12 00:48:53;;;;;;;9.03;8.53;;;23.00;99.90;;;;;;4991918;28;20444;-58
2022/05/12 00:51:26;;;;;;;9.00;8.50;;;22.90;99.90;;;;;;4992355;28;20434;-57
2022/05/12 00:53:56;;;;;;;8.77;8.17;;;22.90;99.90;;;;;;4993288;28;20447;-56
2022/05/12 00:56:23;;;;;;;9.33;8.60;;;22.80;99.90;;;;;;4991066;28;21132;-56
2022/05/12 00:58:57;;;;;;;9.23;8.53;;;22.70;99.90;;;;;;4992159;28;20787;-57
2022/05/12 01:01:22;;;;;;;8.60;7.77;;;22.70;99.90;;;;;;4992754;28;20454;-55
2022/05/12 01:03:48;;;;;;;8.43;7.77;;;22.60;99.90;;;;;;4992206;28;20485;-58
2022/05/12 01:06:14;;;;;;;9.60;9.00;;;22.60;99.90;;;;;;4980212;28;20186;-56
2022/05/12 01:08:40;;;;;;;8.23;7.67;;;22.60;99.90;;;;;;4993193;28;20649;-57
2022/05/12 01:11:13;;;;;;;8.63;8.00;;;22.50;99.90;;;;;;4990186;28;20521;-58
2022/05/12 01:13:39;;;;;;;8.57;8.00;;;22.50;99.90;;;;;;4988907;28;20441;-57
2022/05/12 01:16:05;;;;;;;9.63;8.40;;;22.40;99.90;;;;;;4976855;28;20588;-57
2022/05/12 01:18:33;;;;;;;8.43;7.93;;;22.30;99.90;;;;;;4989148;28;20453;-57
2022/05/12 01:20:59;;;;;;;8.50;8.00;;;22.20;99.90;;;;;;4989008;28;20453;-58
2022/05/12 01:23:38;;;;;;;8.73;7.77;;;22.20;99.90;;;;;;4991036;28;20464;-58
2022/05/12 01:26:09;;;;;;;8.63;7.93;;;22.20;99.90;;;;;;4988108;28;20513;-56
2022/05/12 01:28:36;;;;;;;8.83;8.20;;;22.10;99.90;;;;;;4985224;28;20441;-57
2022/05/12 01:31:02;;;;;;;8.93;8.23;;;22.20;99.90;;;;;;4991090;28;20437;-58
2022/05/12 01:33:28;;;;;;;8.10;7.60;;;22.10;99.90;;;;;;4991689;28;20430;-53
2022/05/12 01:35:53;;;;;;;8.27;7.77;;;22.10;99.90;;;;;;4987562;28;21255;-59
2022/05/12 01:38:20;;;;;;;8.40;7.80;;;22.00;99.90;;;;;;4990249;28;20675;-59
2022/05/12 01:40:46;;;;;;;8.03;7.53;;;21.90;99.90;;;;;;4988178;28;20187;-57
2022/05/12 01:43:13;;;;;;;8.30;7.80;;;21.70;99.90;;;;;;4995276;28;20521;-58
2022/05/12 01:45:39;;;;;;;8.67;8.17;;;21.50;99.90;;;;;;4991812;28;20444;-58
2022/05/12 01:48:06;;;;;;;8.27;7.77;;;21.40;99.90;;;;;;4988546;28;20444;-56
2022/05/12 01:50:32;;;;;;;8.33;7.83;;;21.20;99.90;;;;;;4989251;28;20435;-58
2022/05/12 01:52:57;;;;;;;8.80;7.90;;;21.10;99.90;;;;;;4985531;28;21266;-58
2022/05/12 01:55:26;;;;;;;8.40;7.80;;;21.00;99.90;;;;;;4989741;28;20650;-56
2022/05/12 01:57:52;;;;;;;9.07;8.37;;;20.80;99.90;;;;;;4988201;28;20632;-58
2022/05/12 02:00:21;;;;;;;8.87;8.13;;;20.80;99.90;;;;;;4988981;28;20451;-57
2022/05/12 02:02:47;;;;;;;8.03;7.43;;;20.60;99.90;;;;;;4987065;28;20220;-57
2022/05/12 02:05:13;;;;;;;7.90;7.30;;;20.50;99.90;;;;;;4990974;28;20460;-58
2022/05/12 02:07:41;;;;;;;8.33;7.80;;;20.40;99.90;;;;;;4988895;28;20452;-55
2022/05/12 02:10:09;;;;;;;9.20;8.50;;;20.40;99.90;;;;;;4991135;28;20420;-55
2022/05/12 02:12:35;;;;;;;8.37;7.87;;;20.30;99.90;;;;;;4989710;28;20458;-54
2022/05/12 02:15:01;;;;;;;8.63;8.13;;;20.20;99.90;;;;;;4989985;28;20443;-57
2022/05/12 02:17:27;;;;;;;8.33;7.73;;;20.20;99.90;;;;;;4990079;28;20232;-57
2022/05/12 02:19:52;;;;;;;8.37;7.87;;;20.10;99.90;;;;;;4987432;28;20522;-56
2022/05/12 02:22:18;;;;;;;9.00;8.40;;;20.10;99.90;;;;;;4989591;28;20200;-59
2022/05/12 02:24:44;;;;;;;9.30;8.30;;;20.00;99.90;;;;;;4989430;28;20262;-58
2022/05/12 02:27:09;;;;;;;8.50;8.00;;;20.00;99.90;;;;;;4986609;28;20189;-56
2022/05/12 02:29:35;;;;;;;8.90;8.30;;;19.90;99.90;;;;;;4990077;28;20547;-56
2022/05/12 02:32:01;;;;;;;8.60;8.10;;;19.90;99.90;;;;;;4986569;28;20203;-58
2022/05/12 02:34:26;;;;;;;9.10;8.50;;;19.90;99.90;;;;;;4989503;28;20454;-58
2022/05/12 02:37:01;;;;;;;8.30;7.70;;;19.80;99.90;;;;;;4989041;28;20187;-51
2022/05/12 02:39:36;;;;;;;8.63;8.07;;;19.80;99.90;;;;;;4989569;28;20184;-52
2022/05/12 02:42:04;;;;;;;8.77;8.17;;;19.70;99.90;;;;;;4990190;28;20533;-56
2022/05/12 02:44:30;;;;;;;8.30;7.80;;;19.70;99.90;;;;;;4988960;28;20542;-54
2022/05/12 02:46:55;;;;;;;8.30;7.70;;;19.70;99.90;;;;;;4989522;28;20412;-54
2022/05/12 02:49:21;;;;;;;8.40;7.87;;;19.60;99.90;;;;;;4988349;28;20444;-53
2022/05/12 02:51:47;;;;;;;8.77;8.17;;;19.50;99.90;;;;;;4987242;28;20188;-51
2022/05/12 02:54:14;;;;;;;8.13;7.63;;;19.50;99.90;;;;;;4984286;28;20212;-58
2022/05/12 02:56:39;;;;;;;8.50;7.87;;;19.40;99.90;;;;;;4974335;28;20483;-55
2022/05/12 02:59:06;;;;;;;9.13;8.63;;;19.30;99.90;;;;;;4989966;28;20465;-59
2022/05/12 03:01:32;;;;;;;9.10;8.50;;;19.30;99.90;;;;;;4989292;28;20208;-55
2022/05/12 03:03:58;;;;;;;9.27;8.67;;;19.30;99.90;;;;;;4989160;28;20517;-55
2022/05/12 03:06:24;;;;;;;9.80;9.00;;;19.20;99.90;;;;;;4988530;28;20439;-52
2022/05/12 03:08:49;;;;;;;8.80;8.10;;;19.30;99.90;;;;;;4990547;28;20195;-56
2022/05/12 03:11:15;;;;;;;8.60;8.10;;;19.40;99.90;;;;;;4987616;28;20180;-55
2022/05/12 03:13:40;;;;;;;8.73;8.10;;;19.40;99.90;;;;;;4989263;28;20203;-53
2022/05/12 03:16:06;;;;;;;8.77;8.20;;;19.60;99.90;;;;;;4988393;28;20245;-51
2022/05/12 03:18:31;;;;;;;7.83;7.40;;;20.00;99.90;;;;;;4989317;28;20188;-54
2022/05/12 03:20:57;;;;;;;8.13;7.53;;;20.20;99.90;;;;;;4989143;28;20188;-55
2022/05/12 03:23:23;;;;;;;8.40;7.90;;;20.40;99.90;;;;;;4988944;28;20212;-53
2022/05/12 03:25:51;;;;;;;9.00;8.20;;;20.70;99.90;;;;;;4987350;28;20188;-57
2022/05/12 03:28:17;;;;;;;8.53;7.93;;;20.80;99.90;;;;;;4987185;28;20436;-54
2022/05/12 03:30:43;;;;;;;8.00;7.30;;;21.00;99.90;;;;;;4988493;28;20416;-54
2022/05/12 03:33:12;;;;;;;8.53;7.93;;;21.20;99.90;;;;;;4987264;28;20572;-52
2022/05/12 03:35:37;;;;;;;9.07;8.13;;;21.40;99.90;;;;;;4989255;28;20503;-54
2022/05/12 03:38:06;;;;;;;7.73;7.03;;;21.40;99.90;;;;;;4990034;28;20423;-52
2022/05/12 03:40:32;;;;;;;8.03;7.33;;;21.60;99.90;;;;;;4983749;28;20188;-55
2022/05/12 03:42:58;;;;;;;8.30;7.80;;;21.70;99.90;;;;;;4988413;28;20440;-54
2022/05/12 03:45:26;;;;;;;7.80;7.30;;;21.80;99.90;;;;;;4987953;28;20465;-55
2022/05/12 03:47:52;;;;;;;8.80;8.07;;;21.80;99.90;;;;;;4989855;28;20432;-53
2022/05/12 03:50:20;;;;;;;7.83;7.30;;;21.80;99.90;;;;;;4988421;28;20413;-55
2022/05/12 03:52:47;;;;;;;9.30;7.73;;;22.00;99.90;;;;;;4988326;28;20194;-54
2022/05/12 03:55:16;;;;;;;8.60;8.03;;;21.90;99.90;;;;;;4988409;28;20970;-56
2022/05/12 03:57:42;;;;;;;8.77;7.43;;;22.00;99.90;;;;;;4987540;28;20444;-52
2022/05/12 04:00:10;;;;;;;7.60;7.10;;;22.00;99.90;;;;;;4987549;28;20432;-56
2022/05/12 04:02:35;;;;;;;7.80;7.30;;;22.00;99.90;;;;;;4986134;28;20429;-54
2022/05/12 04:05:01;;;;;;;7.30;6.80;;;22.00;99.90;;;;;;4984298;28;20528;-56
2022/05/12 04:07:27;;;;;;;8.23;7.73;;;22.00;99.90;;;;;;4989048;28;20262;-54
2022/05/12 04:09:52;;;;;;;7.13;6.70;;;22.00;99.90;;;;;;4979855;28;20187;-52
2022/05/12 04:12:18;;;;;;;7.83;7.23;;;22.00;99.90;;;;;;4987482;28;20229;-56
2022/05/12 04:14:45;;;;;;;9.00;8.20;;;22.10;99.90;;;;;;4986770;28;20242;-54
2022/05/12 04:17:13;;;;;;;8.57;7.97;;;22.10;99.90;;;;;;4988008;28;20447;-54
2022/05/12 04:19:39;;;;;;;7.50;7.00;;;22.00;99.90;;;;;;4986217;28;20529;-53
2022/05/12 04:22:05;;;;;;;7.83;7.20;;;22.00;99.90;;;;;;4988282;28;20722;-54
2022/05/12 04:24:32;;;;;;;8.00;7.43;;;22.00;99.90;;;;;;4992133;28;20463;-56
2022/05/12 04:26:58;;;;;;;7.27;6.87;;;21.90;99.90;;;;;;4988415;28;20177;-57
2022/05/12 04:29:25;;;;;;;7.10;6.60;;;22.00;99.90;;;;;;4988992;28;20533;-55
2022/05/12 04:31:50;;;;;;;7.03;6.43;;;22.00;99.90;;;;;;4988511;28;20192;-53
2022/05/12 04:37:00;;;;;;;8.20;7.70;;;22.00;99.90;;;;;;4990171;28;20319;-58
2022/05/12 04:39:26;;;;;;;7.50;7.00;;;22.00;99.90;;;;;;4988863;28;20526;-58
2022/05/12 04:41:51;;;;;;;7.40;6.80;;;21.90;99.90;;;;;;4991687;28;20178;-55
2022/05/12 04:44:17;;;;;;;7.00;6.30;;;22.00;99.90;;;;;;4991338;28;20560;-57
2022/05/12 04:46:43;;;;;;;8.00;7.50;;;21.90;99.90;;;;;;4992022;28;20196;-58
2022/05/12 04:49:10;;;;;;;7.80;6.90;;;21.90;99.90;;;;;;4975448;28;20189;-58
2022/05/12 04:51:37;;;;;;;7.40;6.77;;;22.00;99.90;;;;;;4981949;28;20450;-56
2022/05/12 04:54:09;;;;;;;7.97;7.17;;;22.00;99.90;;;;;;4993093;28;20828;-58
2022/05/12 04:56:38;;;;;;;7.20;6.47;;;21.90;99.90;;;;;;4992551;28;20467;-57
2022/05/12 04:59:05;;;;;;;8.10;7.40;;;21.80;99.90;;;;;;4992456;28;20507;-59
2022/05/12 05:01:30;;;;;;;7.33;6.53;;;21.60;99.90;;;;;;4991042;28;20444;-59
2022/05/12 05:03:59;;;;;;;8.70;6.93;;;21.40;99.90;;;;;;4992706;28;20505;-57
2022/05/12 05:06:28;;;;;;;7.43;6.70;;;21.20;99.90;;;;;;4992683;28;20331;-58
2022/05/12 05:08:54;;;;;;;7.77;7.27;;;21.00;99.90;;;;;;4992651;28;20414;-57
2022/05/12 05:11:21;;;;;;;7.63;7.03;;;20.80;99.90;;;;;;4992576;28;20505;-54
2022/05/12 05:13:46;;;;;;;8.80;7.07;;;20.70;99.90;;;;;;4992449;28;20886;-57
2022/05/12 05:16:12;;;;;;;7.80;7.23;;;20.60;99.90;;;;;;4987679;28;20443;-57
2022/05/12 05:18:38;;;;;;;7.73;6.83;;;20.60;99.90;;;;;;4987490;28;20608;-57
2022/05/12 05:21:04;;;;;;;8.70;7.80;;;20.60;99.90;;;;;;4992210;28;20980;-58
2022/05/12 05:23:30;;;;;;;7.50;7.00;;;20.50;99.90;;;;;;4992205;28;20291;-57
2022/05/12 05:25:56;;;;;;;7.43;6.83;;;20.40;99.90;;;;;;4991894;28;20599;-57
2022/05/12 05:28:22;;;;;;;7.70;7.00;;;20.30;99.90;;;;;;4988131;28;20195;-57
2022/05/12 05:30:48;;;;;;;7.87;7.20;;;20.40;99.90;;;;;;4989560;28;20177;-57
2022/05/12 05:33:13;;;;;;;7.50;6.80;;;20.40;99.90;;;;;;4983278;28;20451;-58
2022/05/12 05:35:39;;;;;;;7.10;6.50;;;20.30;99.90;;;;;;4992182;28;20431;-58
2022/05/12 05:38:05;;;;;;;8.20;7.20;;;20.30;99.90;;;;;;4992258;28;20814;-58
2022/05/12 05:40:31;;;;;;;6.63;6.13;;;20.40;99.90;;;;;;4988706;28;20230;-56
2022/05/12 05:42:57;;;;;;;7.97;7.27;;;20.40;99.90;;;;;;4977581;28;20275;-57
2022/05/12 05:45:24;;;;;;;7.07;6.67;;;20.40;99.90;;;;;;4991741;28;20185;-56
2022/05/12 05:47:54;;;;;;;7.37;6.67;;;20.40;99.90;;;;;;4988126;28;20447;-58
2022/05/12 05:50:23;;;;;;;7.63;6.90;;;20.30;99.90;;;;;;4990865;28;20427;-57
2022/05/12 05:55:33;;;;;;;6.97;6.30;;;20.10;99.90;;;;;;4988036;28;20542;-58
2022/05/12 05:58:00;;;;;;;6.13;5.73;;;20.10;99.90;;;;;;4972410;28;20871;-57
2022/05/12 06:00:27;;;;;;;6.40;6.00;;;20.10;99.90;;;;;;4990447;28;20519;-55
2022/05/12 06:02:53;;;;;;;6.97;6.40;;;20.00;99.90;;;;;;4991526;28;20420;-58
2022/05/12 06:05:18;;;;;;;9.00;6.70;;;20.10;99.90;;;;;;4990632;28;20435;-58
2022/05/12 06:07:45;;;;;;;6.47;6.00;;;20.10;99.90;;;;;;4990366;28;20208;-57
2022/05/12 06:10:11;;;;;;;7.47;6.97;;;20.20;99.90;;;;;;4991224;28;20466;-57
2022/05/12 06:12:38;;;;;;;7.07;6.47;;;20.20;99.90;;;;;;4990460;28;20238;-56
2022/05/12 06:15:05;;;;;;;6.03;5.63;;;20.30;99.90;;;;;;4990611;28;20447;-57
2022/05/12 06:17:30;;;;;;;7.73;6.20;;;20.30;99.90;;;;;;4991241;28;20451;-56
2022/05/12 06:19:56;;;;;;;8.03;6.33;;;20.30;99.90;;;;;;4991308;28;20457;-58
2022/05/12 06:22:22;;;;;;;6.20;5.70;;;20.30;99.90;;;;;;4990945;28;20207;-57
2022/05/12 06:24:49;;;;;;;6.30;5.90;;;20.10;99.90;;;;;;4989493;28;20475;-57
2022/05/12 06:27:16;;;;;;;6.70;6.20;;;20.00;99.90;;;;;;4989865;28;20250;-52
2022/05/12 06:29:44;;;;;;;6.40;6.00;;;20.00;99.90;;;;;;4976732;28;20420;-56
2022/05/12 06:32:10;;;;;;;6.90;6.17;;;20.00;99.90;;;;;;4983515;28;20423;-59
2022/05/12 06:34:36;;;;;;;6.60;6.10;;;20.10;99.90;;;;;;4985971;28;20431;-58
2022/05/12 06:37:03;;;;;;;5.90;5.50;;;20.10;99.90;;;;;;4981212;28;20196;-57
2022/05/12 06:39:30;;;;;;;6.57;6.10;;;20.10;99.90;;;;;;4976531;28;20456;-57
2022/05/12 06:41:56;;;;;;;7.10;5.67;;;20.10;99.90;;;;;;4978106;28;20452;-57
2022/05/12 06:44:21;;;;;;;5.70;5.30;;;20.20;99.90;;;;;;4988024;28;20526;-54
2022/05/12 06:46:47;;;;;;;6.30;5.90;;;20.20;99.90;;;;;;4984714;28;20818;-57
2022/05/12 06:49:13;;;;;;;6.53;6.03;;;20.30;99.90;;;;;;4981867;28;20241;-54
2022/05/12 06:51:39;;;;;;;6.47;5.97;;;20.30;99.90;;;;;;4990463;28;20184;-56
2022/05/12 06:54:05;;;;;;;6.10;5.60;;;20.30;99.90;;;;;;4989277;28;20192;-56
2022/05/12 06:56:31;;;;;;;6.70;6.30;;;20.30;99.90;;;;;;4976851;28;20484;-58
2022/05/12 06:58:56;;;;;;;5.70;5.30;;;20.20;99.90;;;;;;4990670;28;21396;-57
2022/05/12 07:01:23;;;;;;;5.43;4.93;;;20.10;99.90;;;;;;4990499;28;20555;-58
2022/05/12 07:03:48;;;;;;;4.67;4.30;;;20.00;99.90;;;;;;4989780;28;20214;-56
2022/05/12 07:06:14;;;;;;;4.10;3.90;;;19.70;99.90;;;;;;4989040;28;21223;-54
2022/05/12 07:08:41;;;;;;;4.57;4.27;;;19.60;99.90;;;;;;4989996;28;20689;-58
2022/05/12 07:11:07;;;;;;;5.97;4.57;;;19.60;99.90;;;;;;4987433;28;20184;-55
2022/05/12 07:13:33;;;;;;;4.23;4.03;;;19.50;99.90;;;;;;4980684;28;20857;-58
2022/05/12 07:16:00;;;;;;;4.73;4.40;;;19.60;99.90;;;;;;4983412;28;20431;-58
2022/05/12 07:18:26;;;;;;;4.73;4.40;;;19.70;99.90;;;;;;4979019;28;20980;-54
2022/05/12 07:29:05;;;;;;;4.50;4.20;;;19.90;99.90;;;;;;4989981;28;20415;-58
2022/05/12 07:31:31;;;;;;;4.70;4.30;;;20.10;99.90;;;;;;4983539;28;20431;-53
2022/05/12 07:33:57;;;;;;;5.83;4.20;;;20.30;99.90;;;;;;4981643;28;20412;-57
2022/05/12 07:36:29;;;;;;;4.70;4.50;;;20.50;99.90;;;;;;4981259;28;20999;-55
2022/05/12 07:38:56;;;;;;;5.00;4.60;;;20.60;99.90;;;;;;4994138;28;20425;-54
2022/05/12 07:41:22;;;;;;;4.70;4.27;;;20.70;99.90;;;;;;4986831;28;20512;-57
2022/05/12 07:43:49;;;;;;;8.80;4.57;;;20.80;99.90;;;;;;4983986;28;20879;-58
2022/05/12 07:46:17;;;;;;;6.20;4.30;;;20.90;99.90;;;;;;4984908;28;20463;-54
2022/05/12 07:48:43;;;;;;;4.07;3.77;;;20.90;99.90;;;;;;4983336;28;20421;-55
2022/05/12 07:51:09;;;;;;;3.90;3.70;;;20.80;99.90;;;;;;4986055;28;21065;-57
2022/05/12 07:53:35;;;;;;;4.67;4.37;;;20.80;99.90;;;;;;4984050;28;20276;-57
2022/05/12 07:56:01;;;;;;;4.20;3.90;;;20.80;99.90;;;;;;4982825;28;20478;-57
2022/05/12 07:58:27;;;;;;;5.33;4.40;;;20.60;99.90;;;;;;4986730;28;20767;-55
2022/05/12 08:00:53;;;;;;;4.10;3.90;;;20.50;99.90;;;;;;4987490;28;20438;-59
2022/05/12 08:03:22;;;;;;;4.90;4.50;;;20.40;99.90;;;;;;4988304;28;20702;-57
2022/05/12 08:05:48;;;;;;;4.60;4.20;;;20.50;99.90;;;;;;4990097;28;20778;-54
2022/05/12 08:08:14;;;;;;;3.80;3.50;;;20.70;99.90;;;;;;4992175;28;20419;-55
2022/05/12 08:10:39;;;;;;;4.10;3.80;;;20.80;99.90;;;;;;4991709;28;20250;-59
2022/05/12 08:13:06;;;;;;;4.23;4.03;;;20.80;99.90;;;;;;4992158;28;20178;-56
2022/05/12 08:15:32;;;;;;;4.30;4.00;;;20.90;99.90;;;;;;4990776;28;20195;-56
2022/05/12 08:17:57;;;;;;;4.40;4.00;;;21.10;99.90;;;;;;4992201;28;20432;-57
2022/05/12 08:20:24;;;;;;;4.43;4.13;;;21.30;99.90;;;;;;4989354;28;20601;-55
2022/05/12 08:22:50;;;;;;;10.80;4.60;;;21.60;99.90;;;;;;4991057;28;20463;-57
2022/05/12 08:25:16;;;;;;;4.17;3.97;;;21.50;99.90;;;;;;4990764;28;20518;-57
2022/05/12 08:27:42;;;;;;;4.17;3.77;;;21.60;99.90;;;;;;4988106;28;20428;-58
2022/05/12 08:30:11;;;;;;;4.53;3.93;;;21.80;99.90;;;;;;4977847;28;20787;-52
2022/05/12 08:32:37;;;;;;;4.77;4.40;;;21.80;99.90;;;;;;4992237;28;20416;-55
2022/05/12 08:35:04;;;;;;;4.70;4.40;;;21.90;99.90;;;;;;4992494;28;20484;-55
2022/05/12 08:37:30;;;;;;;3.77;3.57;;;21.90;99.90;;;;;;4990631;28;20225;-50
2022/05/12 08:39:56;;;;;;;4.27;3.97;;;22.00;99.90;;;;;;4991597;28;20521;-59
2022/05/12 08:42:26;;;;;;;4.17;3.67;;;22.00;99.90;;;;;;4976339;28;20187;-56
2022/05/12 08:44:52;;;;;;;4.23;3.93;;;22.20;99.90;;;;;;4986495;28;20482;-55
2022/05/12 08:47:27;;;;;;;5.00;4.53;;;22.30;99.90;;;;;;4985618;28;20437;-57
2022/05/12 08:49:53;;;;;;;4.07;3.87;;;22.50;99.90;;;;;;4972808;28;20461;-54
2022/05/12 08:52:38;;;;;;;4.27;3.97;;;22.60;99.90;;;;;;4972268;28;20440;-58
2022/05/12 08:55:31;;;;;;;4.73;4.10;;;22.70;99.90;;;;;;4983887;28;20509;-57
2022/05/12 08:58:08;;;;;;;4.90;4.50;;;22.80;99.90;;;;;;4991204;28;20445;-54
2022/05/12 09:00:40;;;;;;;4.90;4.10;;;22.90;99.90;;;;;;4990860;28;20426;-54
2022/05/12 09:03:17;;;;;;;4.97;4.57;;;23.10;99.90;;;;;;4990911;28;20438;-56
2022/05/12 09:05:59;;;;;;;5.40;3.60;;;23.30;99.90;;;;;;4992071;28;20457;-55
2022/05/12 09:08:48;;;;;;;4.53;4.20;;;23.50;99.90;;;;;;4980001;28;20440;-55
2022/05/12 09:11:40;;;;;;;6.00;4.60;;;23.80;99.90;;;;;;4992584;28;20453;-58
2022/05/12 09:14:32;;;;;;;4.47;4.17;;;24.40;99.90;;;;;;4991102;28;20545;-60
2022/05/12 09:16:59;;;;;;;4.93;4.60;;;24.90;99.90;;;;;;4991221;28;20455;-59
2022/05/12 09:19:27;;;;;;;4.90;4.20;;;25.00;99.90;;;;;;4979902;28;20785;-57
2022/05/12 09:21:53;;;;;;;4.70;4.30;;;25.40;99.90;;;;;;4984317;28;20427;-57
2022/05/12 09:24:19;;;;;;;4.60;4.20;;;25.40;99.90;;;;;;4991360;28;20482;-58
2022/05/12 09:26:51;;;;;;;4.60;4.20;;;25.40;99.90;;;;;;4991319;28;20448;-57
2022/05/12 09:29:27;;;;;;;4.23;3.93;;;25.90;99.90;;;;;;4990496;28;20233;-56
2022/05/12 09:31:57;;;;;;;4.60;4.20;;;26.20;99.90;;;;;;4983966;28;20513;-56
2022/05/12 09:34:25;;;;;;;4.60;4.40;;;26.10;99.90;;;;;;4990373;28;20427;-56
2022/05/12 09:36:51;;;;;;;4.30;3.90;;;25.50;99.90;;;;;;4990200;28;20425;-56
2022/05/12 09:39:44;;;;;;;3.83;3.67;;;25.80;99.90;;;;;;4989863;28;20449;-55
2022/05/12 09:42:28;;;;;;;4.80;4.40;;;26.30;99.90;;;;;;4989883;28;20454;-56
2022/05/12 09:44:59;;;;;;;4.20;3.90;;;26.70;99.90;;;;;;4991369;28;20524;-55
2022/05/12 09:47:26;;;;;;;7.77;4.33;;;26.80;99.90;;;;;;4991147;28;20445;-56
2022/05/12 09:50:16;;;;;;;4.13;3.83;;;27.00;99.90;;;;;;4990588;28;20816;-57
2022/05/12 09:52:43;;;;;;;4.33;3.93;;;26.60;99.90;;;;;;4990812;28;20461;-57
2022/05/12 09:55:14;;;;;;;4.50;4.17;;;25.80;99.90;;;;;;4990167;28;20437;-56
2022/05/12 09:57:50;;;;;;;4.30;4.10;;;25.20;99.90;;;;;;4990839;28;20432;-58
2022/05/12 10:00:37;;;;;;;4.17;3.97;;;24.80;99.90;;;;;;4972921;28;20758;-59
2022/05/12 10:09:07;;;;;;;4.07;3.80;;;23.80;99.90;;;;;;4974974;28;20395;-55
2022/05/12 10:11:53;;;;;;;4.60;3.90;;;24.00;99.90;;;;;;4989857;28;20435;-54
2022/05/12 10:14:47;;;;;;;4.63;4.43;;;23.80;99.90;;;;;;4990608;28;20431;-56
2022/05/12 10:17:36;;;;;;;4.80;4.40;;;23.90;99.90;;;;;;4983048;28;21081;-58
2022/05/12 10:20:07;;;;;;;4.50;4.23;;;24.30;99.90;;;;;;4976404;28;20451;-57
2022/05/12 10:22:43;;;;;;;4.23;4.03;;;24.90;99.90;;;;;;4977918;28;20417;-54
2022/05/12 10:25:57;;;;;;;4.10;3.90;;;25.20;99.90;;;;;;4989150;28;20468;-56
2022/05/12 10:28:50;;;;;;;4.30;4.00;;;25.90;99.90;;;;;;4986019;28;20491;-56
2022/05/12 10:31:32;;;;;;;4.90;4.60;;;26.90;99.90;;;;;;4984637;28;20425;-57
2022/05/12 10:34:32;;;;;;;4.20;3.90;;;27.60;99.90;;;;;;4982664;28;20504;-57
2022/05/12 10:37:52;;;;;;;4.30;4.00;;;28.40;99.90;;;;;;4974580;28;20941;-59
2022/05/12 10:40:30;;;;;;;4.37;4.03;;;29.00;99.90;;;;;;4963337;28;20454;-58
2022/05/12 10:43:33;;;;;;;4.43;4.13;;;29.90;99.90;;;;;;4978271;28;20442;-58
2022/05/12 10:46:17;;;;;;;4.20;4.00;;;30.40;99.90;;;;;;4987237;28;20443;-58
2022/05/12 10:48:54;;;;;;;4.73;4.17;;;30.70;99.90;;;;;;4988713;28;20485;-58
2022/05/12 10:51:41;;;;;;;4.33;4.13;;;30.00;99.90;;;;;;4988158;28;20516;-59
2022/05/12 10:54:19;;;;;;;4.50;4.30;;;29.40;99.90;;;;;;4986895;28;20435;-58
2022/05/12 10:57:11;;;;;;;4.20;4.00;;;29.60;99.90;;;;;;4987997;28;20451;-59
2022/05/12 10:59:51;;;;;;;4.03;3.83;;;29.10;99.90;;;;;;4988147;28;20527;-58
2022/05/12 11:02:38;;;;;;;4.33;4.07;;;29.40;99.90;;;;;;4988106;28;20766;-59
2022/05/12 11:05:22;;;;;;;4.63;4.43;;;29.90;99.90;;;;;;4986586;28;20565;-58
2022/05/12 11:08:06;;;;;;;5.10;4.70;;;30.80;99.90;;;;;;4985192;28;20439;-58
2022/05/12 11:10:55;;;;;;;4.20;4.00;;;30.60;99.90;;;;;;4987810;28;20430;-57
2022/05/12 11:13:29;;;;;;;5.70;4.67;;;30.50;99.90;;;;;;4988672;28;20419;-58
2022/05/12 11:16:18;;;;;;;4.87;4.57;;;30.70;99.90;;;;;;4987611;28;20422;-56
2022/05/12 11:19:05;;;;;;;4.93;4.70;;;31.40;99.90;;;;;;4988202;28;21298;-56
2022/05/12 11:21:35;;;;;;;4.60;4.40;;;31.70;99.90;;;;;;4987776;28;20411;-58
2022/05/12 11:24:23;;;;;;;5.10;4.83;;;31.40;99.90;;;;;;4987717;28;20466;-58
2022/05/12 11:27:15;;;;;;;4.73;4.53;;;31.40;99.90;;;;;;4988570;28;20412;-58
2022/05/12 11:30:07;;;;;;;5.23;4.70;;;31.10;99.90;;;;;;4979950;28;20511;-58
2022/05/12 11:32:50;;;;;;;4.00;3.80;;;28.50;99.90;;;;;;4977371;28;20800;-56
2022/05/12 11:35:22;;;;;;;3.90;3.70;;;28.00;99.90;;;;;;4989223;28;20446;-59
2022/05/12 11:37:49;;;;;;;4.33;4.13;;;29.00;99.90;;;;;;4989193;28;20471;-56
2022/05/12 11:40:40;;;;;;;4.70;4.47;;;29.70;99.90;;;;;;4987164;28;20426;-58
2022/05/12 11:46:22;;;;;;;3.93;3.63;;;30.40;99.90;;;;;;4988860;28;20446;-57
2022/05/12 11:48:58;;;;;;;4.77;4.30;;;30.40;99.90;;;;;;4987479;28;20926;-58
2022/05/12 11:51:35;;;;;;;4.40;4.00;;;30.40;99.90;;;;;;4988823;28;21123;-59
2022/05/12 11:54:19;;;;;;;4.47;4.27;;;30.50;99.90;;;;;;4989259;28;20757;-58
2022/05/12 11:56:51;;;;;;;4.20;4.07;;;30.80;99.90;;;;;;4989036;28;20995;-57
2022/05/12 11:59:26;;;;;;;4.13;3.90;;;30.80;99.90;;;;;;4988917;28;20458;-58
2022/05/12 12:02:01;;;;;;;4.10;3.90;;;31.00;99.90;;;;;;4984291;28;20917;-58
2022/05/12 12:04:49;;;;;;;4.57;3.93;;;31.60;99.90;;;;;;4987495;28;20454;-58
2022/05/12 12:07:32;;;;;;;4.03;3.73;;;31.80;99.90;;;;;;4978562;28;20503;-58
2022/05/12 12:10:09;;;;;;;4.47;4.17;;;31.80;99.90;;;;;;4988008;28;20403;-58
2022/05/12 12:12:41;;;;;;;5.07;4.77;;;31.60;99.90;;;;;;4988599;28;20450;-56
2022/05/12 12:15:20;;;;;;;4.50;4.13;;;31.50;99.90;;;;;;4988855;28;20415;-58
2022/05/12 12:17:45;;;;;;;4.40;4.20;;;31.20;99.90;;;;;;4988729;28;20737;-59
2022/05/12 12:20:31;;;;;;;5.20;4.80;;;31.40;99.90;;;;;;4979280;28;20455;-58
2022/05/12 12:23:18;;;;;;;5.00;4.80;;;31.50;99.90;;;;;;4983391;28;20209;-59
2022/05/12 12:25:53;;;;;;;4.90;4.70;;;31.40;99.90;;;;;;4981087;28;20451;-59
2022/05/12 12:28:56;;;;;;;4.70;4.40;;;31.50;99.90;;;;;;4988869;28;20423;-59
2022/05/12 12:31:30;;;;;;;4.67;4.27;;;31.60;99.90;;;;;;4979708;28;20769;-59
2022/05/12 12:34:15;;;;;;;4.70;4.40;;;31.80;99.90;;;;;;4987495;28;20859;-60
2022/05/12 12:36:53;;;;;;;4.20;3.97;;;32.30;99.90;;;;;;4983439;28;20431;-59
2022/05/12 12:39:41;;;;;;;3.77;3.57;;;32.50;99.90;;;;;;4988155;28;20508;-58
2022/05/12 12:42:41;;;;;;;4.30;4.07;;;32.70;99.90;;;;;;4986086;28;20439;-59
2022/05/12 12:45:14;;;;;;;3.73;3.53;;;32.90;99.90;;;;;;4979672;28;20980;-57
2022/05/12 12:47:54;;;;;;;3.87;3.63;;;32.80;99.90;;;;;;4984009;28;20444;-58
2022/05/12 12:50:31;;;;;;;4.10;3.80;;;33.30;99.90;;;;;;4979652;28;20769;-58
2022/05/12 12:52:57;;;;;;;4.30;4.03;;;34.00;99.90;;;;;;4991914;28;20427;-58
2022/05/12 12:58:27;;;;;;;4.10;3.80;;;34.50;99.90;;;;;;4973609;28;20204;-58
2022/05/12 13:01:01;;;;;;;4.73;4.33;;;34.60;99.90;;;;;;4982739;28;20909;-58
2022/05/12 13:03:32;;;;;;;4.10;3.80;;;34.60;99.90;;;;;;4985150;28;20471;-58
2022/05/12 13:06:16;;;;;;;4.07;3.77;;;34.70;99.90;;;;;;4990127;28;20427;-57
2022/05/12 13:08:43;;;;;;;4.47;4.17;;;34.40;99.90;;;;;;4990685;28;20432;-59
2022/05/12 13:11:19;;;;;;;4.60;4.23;;;34.30;99.90;;;;;;4988787;28;20430;-58
2022/05/12 13:13:51;;;;;;;4.17;3.83;;;34.00;99.90;;;;;;4990468;28;20929;-59
2022/05/12 13:16:19;;;;;;;3.87;3.70;;;33.50;99.90;;;;;;4988955;28;20938;-59
2022/05/12 13:18:49;;;;;;;4.17;3.83;;;33.30;99.90;;;;;;4990078;28;20846;-58
2022/05/12 13:21:37;;;;;;;3.73;3.53;;;33.30;99.90;;;;;;4990299;28;20455;-54
2022/05/12 13:24:03;;;;;;;4.10;3.80;;;32.50;99.90;;;;;;4991605;28;20451;-59
2022/05/12 13:26:30;;;;;;;4.10;3.90;;;32.50;99.90;;;;;;4990571;28;20506;-58
2022/05/12 13:28:56;;;;;;;4.30;4.10;;;32.60;99.90;;;;;;4991476;28;20835;-59
2022/05/12 13:31:26;;;;;;;4.30;4.03;;;32.80;99.90;;;;;;4990486;28;20542;-56